sensor_id;sensor_type;location;lat;lon;timestamp;pressure;altitude;pressure_sealevel;temperature;humidity
32642;BME280;19323;56.072;9.698;2023-04-02T00:04:13;101309.88;;;26.08;35.41
32642;BME280;19323;56.072;9.698;2023-04-02T00:06:39;101318.94;;;26.07;35.40
32642;BME280;19323;56.072;9.698;2023-04-02T00:11:43;101324.28;;;26.07;35.40
32642;BME280;19323;56.072;9.698;2023-04-02T00:14:17;101328.97;;;26.05;35.21
32642;BME280;19323;56.072;9.698;2023-04-02T00:16:45;101334.34;;;26.05;35.35
32642;BME280;19323;56.072;9.698;2023-04-02T00:19:14;101337.03;;;26.05;35.05
32642;BME280;19323;56.072;9.698;2023-04-02T00:21:41;101338.03;;;26.04;34.94
32642;BME280;19323;56.072;9.698;2023-04-02T00:24:15;101343.41;;;26.04;35.00
32642;BME280;19323;56.072;9.698;2023-04-02T00:26:45;101354.13;;;26.04;35.36
32642;BME280;19323;56.072;9.698;2023-04-02T00:29:11;101351.44;;;26.04;34.97
32642;BME280;19323;56.072;9.698;2023-04-02T00:31:37;101360.47;;;26.03;34.92
32642;BME280;19323;56.072;9.698;2023-04-02T00:34:05;101361.50;;;26.02;35.25
32642;BME280;19323;56.072;9.698;2023-04-02T00:36:32;101364.44;;;25.99;35.25
32642;BME280;19323;56.072;9.698;2023-04-02T00:38:58;101367.84;;;26.01;35.30
32642;BME280;19323;56.072;9.698;2023-04-02T00:41:25;101368.13;;;25.98;35.20
32642;BME280;19323;56.072;9.698;2023-04-02T00:43:55;101369.13;;;25.97;35.26
32642;BME280;19323;56.072;9.698;2023-04-02T00:46:22;101377.16;;;25.97;35.20
32642;BME280;19323;56.072;9.698;2023-04-02T00:48:49;101379.84;;;25.97;35.11
32642;BME280;19323;56.072;9.698;2023-04-02T00:51:18;101384.38;;;25.97;34.89
32642;BME280;19323;56.072;9.698;2023-04-02T00:53:46;101387.19;;;25.95;35.15
32642;BME280;19323;56.072;9.698;2023-04-02T00:56:14;101396.13;;;25.96;34.98
32642;BME280;19323;56.072;9.698;2023-04-02T00:58:41;101395.25;;;25.95;34.90
32642;BME280;19323;56.072;9.698;2023-04-02T01:01:14;101401.50;;;25.96;35.02
32642;BME280;19323;56.072;9.698;2023-04-02T01:03:40;101396.97;;;25.96;34.98
32642;BME280;19323;56.072;9.698;2023-04-02T01:06:11;101400.50;;;25.97;34.80
32642;BME280;19323;56.072;9.698;2023-04-02T01:13:42;101410.53;;;25.95;35.12
32642;BME280;19323;56.072;9.698;2023-04-02T01:16:20;101424.94;;;25.94;35.05
32642;BME280;19323;56.072;9.698;2023-04-02T01:21:27;101424.25;;;25.92;34.67
32642;BME280;19323;56.072;9.698;2023-04-02T01:23:59;101434.16;;;25.91;35.00
32642;BME280;19323;56.072;9.698;2023-04-02T01:29:02;101435.97;;;25.90;34.80
32642;BME280;19323;56.072;9.698;2023-04-02T01:31:29;101439.50;;;25.91;34.74
32642;BME280;19323;56.072;9.698;2023-04-02T01:33:57;101444.00;;;25.90;34.84
32642;BME280;19323;56.072;9.698;2023-04-02T01:41:46;101458.56;;;25.88;34.70
32642;BME280;19323;56.072;9.698;2023-04-02T01:44:14;101457.69;;;25.87;34.77
32642;BME280;19323;56.072;9.698;2023-04-02T01:46:41;101465.88;;;25.86;34.80
32642;BME280;19323;56.072;9.698;2023-04-02T01:49:10;101469.56;;;25.85;34.82
32642;BME280;19323;56.072;9.698;2023-04-02T01:51:38;101466.88;;;25.85;34.60
32642;BME280;19323;56.072;9.698;2023-04-02T01:54:04;101463.34;;;25.84;34.88
32642;BME280;19323;56.072;9.698;2023-04-02T01:56:29;101467.03;;;25.83;34.79
32642;BME280;19323;56.072;9.698;2023-04-02T01:58:55;101469.56;;;25.85;34.68
32642;BME280;19323;56.072;9.698;2023-04-02T02:01:22;101478.47;;;25.85;34.75
32642;BME280;19323;56.072;9.698;2023-04-02T02:03:48;101476.63;;;25.86;34.91
32642;BME280;19323;56.072;9.698;2023-04-02T02:06:15;101481.28;;;25.84;34.94
32642;BME280;19323;56.072;9.698;2023-04-02T02:08:45;101481.28;;;25.84;34.57
32642;BME280;19323;56.072;9.698;2023-04-02T02:11:16;101486.66;;;25.84;34.93
32642;BME280;19323;56.072;9.698;2023-04-02T02:13:46;101500.06;;;25.84;34.84
32642;BME280;19323;56.072;9.698;2023-04-02T02:16:12;101500.78;;;25.86;34.66
32642;BME280;19323;56.072;9.698;2023-04-02T02:18:41;101500.91;;;25.84;34.72
32642;BME280;19323;56.072;9.698;2023-04-02T02:21:07;101502.75;;;25.84;34.83
32642;BME280;19323;56.072;9.698;2023-04-02T02:23:34;101510.78;;;25.84;34.57
32642;BME280;19323;56.072;9.698;2023-04-02T02:25:59;101512.78;;;25.82;34.66
32642;BME280;19323;56.072;9.698;2023-04-02T02:28:30;101509.38;;;25.80;34.82
32642;BME280;19323;56.072;9.698;2023-04-02T02:33:38;101516.59;;;25.79;34.53
32642;BME280;19323;56.072;9.698;2023-04-02T02:36:12;101518.44;;;25.79;34.78
32642;BME280;19323;56.072;9.698;2023-04-02T02:41:12;101520.28;;;25.78;34.70
32642;BME280;19323;56.072;9.698;2023-04-02T02:43:41;101527.47;;;25.78;34.43
32642;BME280;19323;56.072;9.698;2023-04-02T02:46:08;101528.34;;;25.78;34.44
32642;BME280;19323;56.072;9.698;2023-04-02T02:48:36;101528.34;;;25.78;34.55
32642;BME280;19323;56.072;9.698;2023-04-02T02:51:03;101541.75;;;25.78;34.74
32642;BME280;19323;56.072;9.698;2023-04-02T02:53:33;101540.03;;;25.77;34.36
32642;BME280;19323;56.072;9.698;2023-04-02T02:56:08;101540.88;;;25.78;34.58
32642;BME280;19323;56.072;9.698;2023-04-02T02:58:34;101546.41;;;25.76;34.33
32642;BME280;19323;56.072;9.698;2023-04-02T03:01:00;101542.84;;;25.76;34.43
32642;BME280;19323;56.072;9.698;2023-04-02T03:03:26;101549.22;;;25.75;34.34
32642;BME280;19323;56.072;9.698;2023-04-02T03:05:53;101554.59;;;25.75;34.36
32642;BME280;19323;56.072;9.698;2023-04-02T03:08:42;101563.66;;;25.74;34.42
32642;BME280;19323;56.072;9.698;2023-04-02T03:11:14;101566.31;;;25.74;34.29
32642;BME280;19323;56.072;9.698;2023-04-02T03:13:44;101571.69;;;25.74;34.41
32642;BME280;19323;56.072;9.698;2023-04-02T03:18:48;101575.22;;;25.74;34.49
32642;BME280;19323;56.072;9.698;2023-04-02T03:23:52;101582.56;;;25.72;34.55
32642;BME280;19323;56.072;9.698;2023-04-02T03:26:21;101580.00;;;25.70;34.36
32642;BME280;19323;56.072;9.698;2023-04-02T03:28:54;101583.69;;;25.69;34.25
32642;BME280;19323;56.072;9.698;2023-04-02T03:31:22;101593.56;;;25.69;34.46
32642;BME280;19323;56.072;9.698;2023-04-02T03:33:52;101592.72;;;25.68;34.37
32642;BME280;19323;56.072;9.698;2023-04-02T03:39:15;101610.66;;;25.68;34.48
32642;BME280;19323;56.072;9.698;2023-04-02T03:44:34;101616.16;;;25.66;34.45
32642;BME280;19323;56.072;9.698;2023-04-02T03:47:02;101619.00;;;25.65;34.13
32642;BME280;19323;56.072;9.698;2023-04-02T03:49:32;101626.16;;;25.64;34.16
32642;BME280;19323;56.072;9.698;2023-04-02T03:54:23;101632.53;;;25.63;34.38
32642;BME280;19323;56.072;9.698;2023-04-02T03:56:49;101637.78;;;25.65;34.11
32642;BME280;19323;56.072;9.698;2023-04-02T03:59:36;101639.59;;;25.64;34.02
32642;BME280;19323;56.072;9.698;2023-04-02T04:04:46;101640.59;;;25.63;34.23
32642;BME280;19323;56.072;9.698;2023-04-02T04:07:20;101651.31;;;25.63;34.33
32642;BME280;19323;56.072;9.698;2023-04-02T04:09:46;101654.97;;;25.62;34.15
32642;BME280;19323;56.072;9.698;2023-04-02T04:14:43;101670.34;;;25.60;33.99
32642;BME280;19323;56.072;9.698;2023-04-02T04:17:14;101660.50;;;25.61;33.87
32642;BME280;19323;56.072;9.698;2023-04-02T04:19:48;101672.06;;;25.61;33.85
32642;BME280;19323;56.072;9.698;2023-04-02T04:22:17;101664.97;;;25.60;34.12
32642;BME280;19323;56.072;9.698;2023-04-02T04:24:45;101671.34;;;25.59;34.00
32642;BME280;19323;56.072;9.698;2023-04-02T04:27:17;101672.19;;;25.60;33.85
32642;BME280;19323;56.072;9.698;2023-04-02T04:29:46;101679.41;;;25.59;33.92
32642;BME280;19323;56.072;9.698;2023-04-02T04:32:33;101682.22;;;25.58;34.13
32642;BME280;19323;56.072;9.698;2023-04-02T04:35:23;101685.91;;;25.57;33.98
32642;BME280;19323;56.072;9.698;2023-04-02T04:37:45;101685.06;;;25.56;33.85
32642;BME280;19323;56.072;9.698;2023-04-02T04:40:21;101698.31;;;25.58;34.04
32642;BME280;19323;56.072;9.698;2023-04-02T04:42:48;101697.47;;;25.57;33.95
32642;BME280;19323;56.072;9.698;2023-04-02T04:47:59;101703.97;;;25.55;34.08
32642;BME280;19323;56.072;9.698;2023-04-02T04:50:30;101710.16;;;25.55;33.86
32642;BME280;19323;56.072;9.698;2023-04-02T04:52:57;101712.84;;;25.55;34.04
32642;BME280;19323;56.072;9.698;2023-04-02T04:55:29;101716.53;;;25.54;33.86
32642;BME280;19323;56.072;9.698;2023-04-02T04:58:03;101712.97;;;25.54;34.14
32642;BME280;19323;56.072;9.698;2023-04-02T05:00:41;101718.34;;;25.54;33.93
32642;BME280;19323;56.072;9.698;2023-04-02T05:05:47;101720.19;;;25.53;33.91
32642;BME280;19323;56.072;9.698;2023-04-02T05:08:24;101723.84;;;25.52;33.91
32642;BME280;19323;56.072;9.698;2023-04-02T05:10:51;101732.75;;;25.53;33.85
32642;BME280;19323;56.072;9.698;2023-04-02T05:16:09;101737.53;;;25.49;34.25
32642;BME280;19323;56.072;9.698;2023-04-02T05:18:42;101742.03;;;25.48;34.03
32642;BME280;19323;56.072;9.698;2023-04-02T05:21:19;101749.25;;;25.48;34.22
32642;BME280;19323;56.072;9.698;2023-04-02T05:23:58;101719.66;;;25.28;34.10
32642;BME280;19323;56.072;9.698;2023-04-02T05:26:28;101754.75;;;25.46;34.05
32642;BME280;19323;56.072;9.698;2023-04-02T05:28:56;101756.59;;;25.46;33.96
32642;BME280;19323;56.072;9.698;2023-04-02T05:31:28;101757.53;;;25.45;34.07
32642;BME280;19323;56.072;9.698;2023-04-02T05:33:59;101756.69;;;25.44;34.04
32642;BME280;19323;56.072;9.698;2023-04-02T05:36:26;101761.22;;;25.44;34.27
32642;BME280;19323;56.072;9.698;2023-04-02T05:38:52;101754.25;;;25.32;33.84
32642;BME280;19323;56.072;9.698;2023-04-02T05:43:44;101769.41;;;25.42;34.04
32642;BME280;19323;56.072;9.698;2023-04-02T05:46:15;101772.09;;;25.42;34.05
32642;BME280;19323;56.072;9.698;2023-04-02T05:48:41;101778.16;;;25.44;33.99
32642;BME280;19323;56.072;9.698;2023-04-02T05:51:18;101780.84;;;25.44;33.99
32642;BME280;19323;56.072;9.698;2023-04-02T05:53:46;101789.72;;;25.45;34.17
32642;BME280;19323;56.072;9.698;2023-04-02T05:56:17;101795.97;;;25.45;33.87
32642;BME280;19323;56.072;9.698;2023-04-02T05:59:03;101788.88;;;25.44;34.08
32642;BME280;19323;56.072;9.698;2023-04-02T06:04:18;101803.16;;;25.45;33.78
32642;BME280;19323;56.072;9.698;2023-04-02T06:06:47;101804.97;;;25.44;34.09
32642;BME280;19323;56.072;9.698;2023-04-02T06:09:16;101808.66;;;25.43;34.33
32642;BME280;19323;56.072;9.698;2023-04-02T06:11:45;101805.97;;;25.43;34.22
32642;BME280;19323;56.072;9.698;2023-04-02T06:14:13;101813.16;;;25.43;34.00
32642;BME280;19323;56.072;9.698;2023-04-02T06:16:39;101812.31;;;25.42;33.97
32642;BME280;19323;56.072;9.698;2023-04-02T06:19:06;101817.56;;;25.44;33.95
32642;BME280;19323;56.072;9.698;2023-04-02T06:21:34;101825.59;;;25.44;34.04
32642;BME280;19323;56.072;9.698;2023-04-02T06:24:00;101827.28;;;25.45;34.03
32642;BME280;19323;56.072;9.698;2023-04-02T06:26:31;101837.16;;;25.44;33.85
32642;BME280;19323;56.072;9.698;2023-04-02T06:29:04;101836.06;;;25.47;34.04
32642;BME280;19323;56.072;9.698;2023-04-02T06:31:41;101836.78;;;25.49;34.01
32642;BME280;19323;56.072;9.698;2023-04-02T06:34:16;101846.53;;;25.50;33.79
32642;BME280;19323;56.072;9.698;2023-04-02T06:36:42;101857.25;;;25.50;33.94
32642;BME280;19323;56.072;9.698;2023-04-02T06:39:09;101858.22;;;25.49;34.14
32642;BME280;19323;56.072;9.698;2023-04-02T06:41:39;101867.72;;;25.53;34.04
32642;BME280;19323;56.072;9.698;2023-04-02T06:44:07;101871.25;;;25.54;34.11
32642;BME280;19323;56.072;9.698;2023-04-02T06:46:41;101871.41;;;25.52;34.02
32642;BME280;19323;56.072;9.698;2023-04-02T06:49:18;101874.09;;;25.52;34.23
32642;BME280;19323;56.072;9.698;2023-04-02T06:51:46;101889.44;;;25.50;33.99
32642;BME280;19323;56.072;9.698;2023-04-02T06:54:13;101894.81;;;25.50;34.07
32642;BME280;19323;56.072;9.698;2023-04-02T06:56:44;101898.63;;;25.47;34.10
32642;BME280;19323;56.072;9.698;2023-04-02T06:59:09;101902.16;;;25.48;34.27
32642;BME280;19323;56.072;9.698;2023-04-02T07:01:38;101905.06;;;25.45;34.14
32642;BME280;19323;56.072;9.698;2023-04-02T07:04:05;101909.47;;;25.46;34.28
32642;BME280;19323;56.072;9.698;2023-04-02T07:06:31;101908.47;;;25.47;34.44
32642;BME280;19323;56.072;9.698;2023-04-02T07:08:56;101914.97;;;25.44;34.48
32642;BME280;19323;56.072;9.698;2023-04-02T07:11:21;101927.53;;;25.44;34.57
32642;BME280;19323;56.072;9.698;2023-04-02T07:13:47;101930.09;;;25.45;34.42
32642;BME280;19323;56.072;9.698;2023-04-02T07:16:13;101930.94;;;25.46;34.42
32642;BME280;19323;56.072;9.698;2023-04-02T07:18:38;101934.34;;;25.48;34.76
32642;BME280;19323;56.072;9.698;2023-04-02T07:21:04;101937.97;;;25.47;34.68
32642;BME280;19323;56.072;9.698;2023-04-02T07:23:29;101936.28;;;25.46;34.72
32642;BME280;19323;56.072;9.698;2023-04-02T07:25:54;101944.34;;;25.46;34.63
32642;BME280;19323;56.072;9.698;2023-04-02T07:28:20;101936.41;;;25.44;34.72
32642;BME280;19323;56.072;9.698;2023-04-02T07:30:46;101942.63;;;25.45;34.93
32642;BME280;19323;56.072;9.698;2023-04-02T07:33:13;101940.66;;;25.47;35.07
32642;BME280;19323;56.072;9.698;2023-04-02T07:35:38;101947.88;;;25.46;34.97
32642;BME280;19323;56.072;9.698;2023-04-02T07:38:03;101956.91;;;25.45;35.12
32642;BME280;19323;56.072;9.698;2023-04-02T07:40:28;101953.34;;;25.45;35.31
32642;BME280;19323;56.072;9.698;2023-04-02T07:42:53;101954.22;;;25.45;34.94
32642;BME280;19323;56.072;9.698;2023-04-02T07:45:19;101960.44;;;25.46;34.97
32642;BME280;19323;56.072;9.698;2023-04-02T07:47:44;101973.00;;;25.45;35.10
32642;BME280;19323;56.072;9.698;2023-04-02T07:50:09;101974.81;;;25.45;35.04
32642;BME280;19323;56.072;9.698;2023-04-02T07:52:38;101969.31;;;25.46;35.32
32642;BME280;19323;56.072;9.698;2023-04-02T07:55:04;101980.78;;;25.48;35.50
32642;BME280;19323;56.072;9.698;2023-04-02T07:57:29;101980.78;;;25.48;35.44
32642;BME280;19323;56.072;9.698;2023-04-02T07:59:54;101980.66;;;25.50;35.44
32642;BME280;19323;56.072;9.698;2023-04-02T08:02:21;101980.66;;;25.50;35.25
32642;BME280;19323;56.072;9.698;2023-04-02T08:04:47;101987.72;;;25.51;35.60
32642;BME280;19323;56.072;9.698;2023-04-02T08:07:12;101982.34;;;25.51;35.49
32642;BME280;19323;56.072;9.698;2023-04-02T08:09:37;101987.72;;;25.51;35.39
32642;BME280;19323;56.072;9.698;2023-04-02T08:12:02;101996.47;;;25.53;35.41
32642;BME280;19323;56.072;9.698;2023-04-02T08:14:28;101989.44;;;25.52;35.39
32642;BME280;19323;56.072;9.698;2023-04-02T08:16:53;101990.28;;;25.53;35.59
32642;BME280;19323;56.072;9.698;2023-04-02T08:19:19;101992.84;;;25.54;35.48
32642;BME280;19323;56.072;9.698;2023-04-02T08:21:45;102009.91;;;25.53;35.51
32642;BME280;19323;56.072;9.698;2023-04-02T08:24:12;101987.97;;;25.48;35.52
32642;BME280;19323;56.072;9.698;2023-04-02T08:26:37;102008.66;;;25.57;35.59
32642;BME280;19323;56.072;9.698;2023-04-02T08:29:02;102002.19;;;25.60;35.61
32642;BME280;19323;56.072;9.698;2023-04-02T08:31:27;102015.47;;;25.61;35.63
32642;BME280;19323;56.072;9.698;2023-04-02T08:33:54;102007.31;;;25.63;35.56
32642;BME280;19323;56.072;9.698;2023-04-02T08:36:23;102020.44;;;25.66;35.59
32642;BME280;19323;56.072;9.698;2023-04-02T08:38:48;102021.19;;;25.68;35.32
32642;BME280;19323;56.072;9.698;2023-04-02T08:41:19;102033.47;;;25.70;35.35
32642;BME280;19323;56.072;9.698;2023-04-02T08:49:10;102041.13;;;25.75;35.22
32642;BME280;19323;56.072;9.698;2023-04-02T08:51:36;102032.13;;;25.76;35.20
32642;BME280;19323;56.072;9.698;2023-04-02T08:54:13;102039.28;;;25.76;35.08
32642;BME280;19323;56.072;9.698;2023-04-02T08:56:51;102042.84;;;25.76;34.96
32642;BME280;19323;56.072;9.698;2023-04-02T09:01:54;102057.00;;;25.78;34.97
32642;BME280;19323;56.072;9.698;2023-04-02T09:04:22;102052.47;;;25.79;35.25
32642;BME280;19323;56.072;9.698;2023-04-02T09:06:48;102066.63;;;25.81;35.12
32642;BME280;19323;56.072;9.698;2023-04-02T09:09:16;102068.19;;;25.83;35.21
32642;BME280;19323;56.072;9.698;2023-04-02T09:11:48;102063.66;;;25.84;35.29
32642;BME280;19323;56.072;9.698;2023-04-02T09:14:16;102060.03;;;25.85;34.82
32642;BME280;19323;56.072;9.698;2023-04-02T09:16:43;102061.59;;;25.87;35.16
32642;BME280;19323;56.072;9.698;2023-04-02T09:19:18;102069.63;;;25.87;34.92
32642;BME280;19323;56.072;9.698;2023-04-02T09:21:49;102065.16;;;25.88;34.83
32642;BME280;19323;56.072;9.698;2023-04-02T09:24:17;102075.88;;;25.88;34.78
32642;BME280;19323;56.072;9.698;2023-04-02T09:26:42;102081.25;;;25.88;34.78
32642;BME280;19323;56.072;9.698;2023-04-02T09:31:38;102081.00;;;25.91;34.83
32642;BME280;19323;56.072;9.698;2023-04-02T09:36:48;102083.69;;;25.91;34.36
32642;BME280;19323;56.072;9.698;2023-04-02T09:41:41;102098.06;;;25.90;34.34
32642;BME280;19323;56.072;9.698;2023-04-02T09:44:26;102102.47;;;25.91;34.12
32642;BME280;19323;56.072;9.698;2023-04-02T09:46:55;102106.13;;;25.90;33.97
32642;BME280;19323;56.072;9.698;2023-04-02T09:49:24;102107.84;;;25.91;34.17
32642;BME280;19323;56.072;9.698;2023-04-02T09:52:04;102104.19;;;25.92;33.92
32642;BME280;19323;56.072;9.698;2023-04-02T09:54:30;102112.22;;;25.92;34.31
32642;BME280;19323;56.072;9.698;2023-04-02T09:57:02;102105.16;;;25.91;33.77
32642;BME280;19323;56.072;9.698;2023-04-02T09:59:28;102116.59;;;25.93;33.90
32642;BME280;19323;56.072;9.698;2023-04-02T10:07:03;102119.16;;;25.95;33.76
32642;BME280;19323;56.072;9.698;2023-04-02T10:09:31;102123.56;;;25.96;33.73
32642;BME280;19323;56.072;9.698;2023-04-02T10:11:57;102131.63;;;25.96;33.39
32642;BME280;19323;56.072;9.698;2023-04-02T10:14:25;102134.16;;;25.97;32.88
32642;BME280;19323;56.072;9.698;2023-04-02T10:16:55;102138.56;;;25.98;32.85
32642;BME280;19323;56.072;9.698;2023-04-02T10:22:20;102140.97;;;26.01;32.55
32642;BME280;19323;56.072;9.698;2023-04-02T10:24:45;102147.06;;;26.03;32.66
32642;BME280;19323;56.072;9.698;2023-04-02T10:32:44;102154.88;;;26.06;32.68
32642;BME280;19323;56.072;9.698;2023-04-02T10:35:26;102138.06;;;25.93;32.19
32642;BME280;19323;56.072;9.698;2023-04-02T10:40:47;102160.84;;;26.10;32.44
32642;BME280;19323;56.072;9.698;2023-04-02T10:45:54;102167.19;;;26.09;32.18
32642;BME280;19323;56.072;9.698;2023-04-02T10:53:17;102178.50;;;26.13;31.71
32642;BME280;19323;56.072;9.698;2023-04-02T10:55:45;102178.06;;;26.07;31.80
32642;BME280;19323;56.072;9.698;2023-04-02T10:58:30;102192.81;;;26.13;31.94
32642;BME280;19323;56.072;9.698;2023-04-02T11:00:58;102191.81;;;26.14;31.86
32642;BME280;19323;56.072;9.698;2023-04-02T11:03:34;102198.75;;;26.17;31.50
32642;BME280;19323;56.072;9.698;2023-04-02T11:06:15;102197.81;;;26.18;31.75
32642;BME280;19323;56.072;9.698;2023-04-02T11:08:44;102195.84;;;26.20;31.87
32642;BME280;19323;56.072;9.698;2023-04-02T11:11:19;102197.53;;;26.21;31.97
32642;BME280;19323;56.072;9.698;2023-04-02T11:14:02;102202.91;;;26.21;32.05
32642;BME280;19323;56.072;9.698;2023-04-02T11:16:29;102201.06;;;26.21;31.96
32642;BME280;19323;56.072;9.698;2023-04-02T11:21:42;102207.16;;;26.23;32.08
32642;BME280;19323;56.072;9.698;2023-04-02T11:26:54;102206.91;;;26.26;32.19
32642;BME280;19323;56.072;9.698;2023-04-02T11:29:30;102207.75;;;26.27;32.08
32642;BME280;19323;56.072;9.698;2023-04-02T11:32:11;102210.34;;;26.28;32.18
32642;BME280;19323;56.072;9.698;2023-04-02T11:37:09;102224.34;;;26.32;32.31
32642;BME280;19323;56.072;9.698;2023-04-02T11:42:22;102221.25;;;26.37;32.25
32642;BME280;19323;56.072;9.698;2023-04-02T11:44:48;102217.59;;;26.38;31.82
32642;BME280;19323;56.072;9.698;2023-04-02T11:49:39;102214.81;;;26.39;32.26
32642;BME280;19323;56.072;9.698;2023-04-02T11:52:21;102221.75;;;26.42;32.00
32642;BME280;19323;56.072;9.698;2023-04-02T11:54:54;102218.78;;;26.45;32.20
32642;BME280;19323;56.072;9.698;2023-04-02T11:57:24;102225.72;;;26.47;32.49
32642;BME280;19323;56.072;9.698;2023-04-02T12:03:21;102223.66;;;26.51;32.41
32642;BME280;19323;56.072;9.698;2023-04-02T12:05:30;102227.91;;;26.54;32.82
32642;BME280;19323;56.072;9.698;2023-04-02T12:08:13;102231.34;;;26.56;32.66
32642;BME280;19323;56.072;9.698;2023-04-02T12:10:54;102227.69;;;26.57;32.94
32642;BME280;19323;56.072;9.698;2023-04-02T12:13:25;102232.06;;;26.58;32.63
32642;BME280;19323;56.072;9.698;2023-04-02T12:16:08;102235.47;;;26.60;33.05
32642;BME280;19323;56.072;9.698;2023-04-02T12:18:34;102246.09;;;26.61;32.69
32642;BME280;19323;56.072;9.698;2023-04-02T12:21:00;102236.09;;;26.63;32.75
32642;BME280;19323;56.072;9.698;2023-04-02T12:23:30;102249.38;;;26.65;33.00
32642;BME280;19323;56.072;9.698;2023-04-02T12:26:00;102248.53;;;26.64;33.18
32642;BME280;19323;56.072;9.698;2023-04-02T12:28:26;102245.72;;;26.66;32.76
32642;BME280;19323;56.072;9.698;2023-04-02T12:31:00;102250.09;;;26.67;32.79
32642;BME280;19323;56.072;9.698;2023-04-02T12:33:27;102255.34;;;26.68;33.08
32642;BME280;19323;56.072;9.698;2023-04-02T12:35:54;102260.59;;;26.70;33.06
32642;BME280;19323;56.072;9.698;2023-04-02T12:38:25;102254.22;;;26.71;32.84
32642;BME280;19323;56.072;9.698;2023-04-02T12:40:52;102254.09;;;26.73;32.89
32642;BME280;19323;56.072;9.698;2023-04-02T12:43:28;102260.31;;;26.73;32.96
32642;BME280;19323;56.072;9.698;2023-04-02T12:45:54;102257.50;;;26.75;33.33
32642;BME280;19323;56.072;9.698;2023-04-02T12:48:20;102252.97;;;26.75;33.21
32642;BME280;19323;56.072;9.698;2023-04-02T12:50:46;102265.44;;;26.76;33.17
32642;BME280;19323;56.072;9.698;2023-04-02T12:53:17;102267.28;;;26.76;33.40
32642;BME280;19323;56.072;9.698;2023-04-02T12:55:45;102259.22;;;26.76;33.25
32642;BME280;19323;56.072;9.698;2023-04-02T12:58:22;102271.53;;;26.78;33.16
32642;BME280;19323;56.072;9.698;2023-04-02T13:00:48;102267.03;;;26.79;33.55
32642;BME280;19323;56.072;9.698;2023-04-02T13:03:15;102272.25;;;26.80;33.43
32642;BME280;19323;56.072;9.698;2023-04-02T13:05:45;102283.72;;;26.82;33.02
32642;BME280;19323;56.072;9.698;2023-04-02T13:08:14;102288.13;;;26.83;33.45
32642;BME280;19323;56.072;9.698;2023-04-02T13:10:40;102277.22;;;26.85;33.06
32642;BME280;19323;56.072;9.698;2023-04-02T13:13:11;102286.91;;;26.87;33.54
32642;BME280;19323;56.072;9.698;2023-04-02T13:15:38;102285.06;;;26.88;33.10
32642;BME280;19323;56.072;9.698;2023-04-02T13:20:41;102278.56;;;26.90;32.80
32642;BME280;19323;56.072;9.698;2023-04-02T13:23:22;102289.31;;;26.90;33.26
32642;BME280;19323;56.072;9.698;2023-04-02T13:25:47;102285.63;;;26.91;33.27
32642;BME280;19323;56.072;9.698;2023-04-02T13:28:13;102283.66;;;26.93;32.72
32642;BME280;19323;56.072;9.698;2023-04-02T13:30:38;102279.00;;;26.96;33.16
32642;BME280;19323;56.072;9.698;2023-04-02T13:33:03;102282.41;;;26.98;33.02
32642;BME280;19323;56.072;9.698;2023-04-02T13:35:28;102286.81;;;26.99;32.63
32642;BME280;19323;56.072;9.698;2023-04-02T13:37:53;102280.31;;;27.01;32.69
32642;BME280;19323;56.072;9.698;2023-04-02T13:40:18;102294.63;;;27.02;32.60
32642;BME280;19323;56.072;9.698;2023-04-02T13:42:44;102297.19;;;27.03;32.67
32642;BME280;19323;56.072;9.698;2023-04-02T13:47:47;102297.75;;;27.07;32.54
32642;BME280;19323;56.072;9.698;2023-04-02T13:50:16;102303.00;;;27.08;32.88
32642;BME280;19323;56.072;9.698;2023-04-02T13:52:42;102297.63;;;27.08;32.81
32642;BME280;19323;56.072;9.698;2023-04-02T13:55:07;102301.88;;;27.11;32.43
32642;BME280;19323;56.072;9.698;2023-04-02T13:57:34;102314.34;;;27.12;32.60
32642;BME280;19323;56.072;9.698;2023-04-02T13:59:59;102304.31;;;27.14;32.70
32642;BME280;19323;56.072;9.698;2023-04-02T14:02:24;102311.41;;;27.15;32.52
32642;BME280;19323;56.072;9.698;2023-04-02T14:07:56;102305.88;;;27.17;32.63
32642;BME280;19323;56.072;9.698;2023-04-02T14:10:30;102316.38;;;27.20;32.58
32642;BME280;19323;56.072;9.698;2023-04-02T14:28:08;102308.44;;;27.39;31.07
32642;BME280;19323;56.072;9.698;2023-04-02T14:35:34;102324.19;;;27.44;30.77
32642;BME280;19323;56.072;9.698;2023-04-02T14:40:49;102331.00;;;27.48;30.18
32642;BME280;19323;56.072;9.698;2023-04-02T14:43:23;102332.56;;;27.50;29.92
32642;BME280;19323;56.072;9.698;2023-04-02T14:45:59;102318.09;;;27.42;29.88
32642;BME280;19323;56.072;9.698;2023-04-02T14:51:14;102335.13;;;27.52;29.58
32642;BME280;19323;56.072;9.698;2023-04-02T14:56:07;102325.81;;;27.56;29.53
32642;BME280;19323;56.072;9.698;2023-04-02T14:58:36;102338.00;;;27.60;29.53
32642;BME280;19323;56.072;9.698;2023-04-02T15:01:05;102335.03;;;27.63;29.71
32642;BME280;19323;56.072;9.698;2023-04-02T15:03:34;102333.91;;;27.66;30.08
32642;BME280;19323;56.072;9.698;2023-04-02T15:06:02;102339.88;;;27.69;29.54
32642;BME280;19323;56.072;9.698;2023-04-02T15:08:29;102331.53;;;27.72;29.78
32642;BME280;19323;56.072;9.698;2023-04-02T15:16:13;102340.63;;;27.81;29.32
32642;BME280;19323;56.072;9.698;2023-04-02T15:18:40;102356.53;;;27.84;29.23
32642;BME280;19323;56.072;9.698;2023-04-02T15:21:07;102348.19;;;27.87;28.94
32642;BME280;19323;56.072;9.698;2023-04-02T15:28:33;102361.25;;;27.92;29.27
32642;BME280;19323;56.072;9.698;2023-04-02T15:31:02;102358.56;;;27.92;29.28
32642;BME280;19323;56.072;9.698;2023-04-02T15:33:41;102356.59;;;27.94;28.77
32642;BME280;19323;56.072;9.698;2023-04-02T15:36:13;102358.31;;;27.95;29.06
32642;BME280;19323;56.072;9.698;2023-04-02T15:38:43;102362.69;;;27.96;28.94
32642;BME280;19323;56.072;9.698;2023-04-02T15:43:56;102368.78;;;27.98;28.80